Startpagina
METAR-TAF:

METAR-TAF

Vliegvelden :

McKinley Park, Alaska, Verenigde Staten

breedte: 63-44N, lengte: 148-55W, hoogte: 524 m

Actueel weer

Dit bericht is 36 minuten geleden gemaakt, om 11:56 UTC
Weinig wind
Temperatuur 6°C
Vochtigheid 100%
Druk 1023 hPa
Zicht: 16.1 km
Gebroken wolken op 3900 ft
Geheel bewolkt op 5000 ft

METAR: PAIN 191156Z AUTO 00000KT 10SM BKN039 OVC050 06/06 A3021 RMK AO2 RAE41 SLP252 P0000 60000 T00610056 10083 20061 53002

Tijdstip: 04:32 (12:32 UTC)


TAF: ontbreekt

Waarnemingen en weersverwachtingen van meer dan 4000 vliegvelden (METAR en TAF).

De beschikbare stations zijn de gele en rode punten op de kaart.

Ga met uw muis naar het station om de naam te zien.

Klik dan om waarnemingen en weersverwachtingen te zien.

kaart wijzigen: klik op de groene knoppen met een zwart kruis om in te zoomen, op de groene knop met een streepje om uit te zoomen of op de groene pijlen voor aangrenzende kaarten.


METAR-TAF: